Time;durP1;ratioP1;P1;durP2;ratioP2;P2;SDS_P1;SDS_P2;PMS_P1;PMS_P2;Temp;Humidity;BMP_temperature;BMP_pressure;BME280_temperature;BME280_humidity;BME280_pressure;Samples;Min_cycle;Max_cycle;Signal;HPM_P1;HPM_P2
2021/01/20 00:02:22;;;;;;;3.63;1.70;;;4.00;96.00;;;;;;5105824;28;20483;-73
2021/01/20 00:04:49;;;;;;;2.42;1.50;;;3.90;96.00;;;;;;5092332;28;20645;-73
2021/01/20 00:07:18;;;;;;;3.25;1.65;;;4.10;96.10;;;;;;5090356;28;21096;-74
2021/01/20 00:09:47;;;;;;;2.00;1.50;;;4.00;96.00;;;;;;5110997;28;20397;-73
2021/01/20 00:12:16;;;;;;;3.08;2.00;;;4.00;96.00;;;;;;5112020;28;20405;-74
2021/01/20 00:14:44;;;;;;;5.78;3.10;;;3.90;96.10;;;;;;5108933;28;20521;-73
2021/01/20 00:17:12;;;;;;;4.88;2.63;;;3.80;96.10;;;;;;5112857;28;20709;-74
2021/01/20 00:19:39;;;;;;;5.80;2.90;;;3.80;96.20;;;;;;5123079;27;21029;-74
2021/01/20 00:22:05;;;;;;;3.53;2.53;;;3.80;96.40;;;;;;5129961;27;20428;-73
2021/01/20 00:24:32;;;;;;;4.15;2.38;;;3.70;96.40;;;;;;5097650;28;20406;-73
2021/01/20 00:27:00;;;;;;;4.60;2.20;;;3.80;96.40;;;;;;5092485;28;20432;-74
2021/01/20 00:29:29;;;;;;;3.33;1.92;;;3.90;96.10;;;;;;5088514;28;20838;-73
2021/01/20 00:31:55;;;;;;;2.80;2.05;;;3.90;96.00;;;;;;5091231;28;20719;-73
2021/01/20 00:34:23;;;;;;;3.67;2.42;;;3.80;96.20;;;;;;5097161;27;20403;-74
2021/01/20 00:36:51;;;;;;;3.22;2.17;;;3.80;96.30;;;;;;5132217;27;20395;-73
2021/01/20 00:39:18;;;;;;;2.72;2.15;;;3.70;96.20;;;;;;5124517;27;20395;-73
2021/01/20 00:41:45;;;;;;;2.35;2.00;;;3.70;96.50;;;;;;5091048;28;20463;-73
2021/01/20 00:44:13;;;;;;;4.13;2.20;;;3.60;96.40;;;;;;5092118;28;20460;-74
2021/01/20 00:46:40;;;;;;;4.10;2.40;;;3.50;96.50;;;;;;5089353;28;20394;-73
2021/01/20 00:49:11;;;;;;;4.40;2.30;;;3.50;96.60;;;;;;5092112;28;20417;-74
2021/01/20 00:51:37;;;;;;;4.15;2.60;;;3.50;96.70;;;;;;5103469;27;20404;-74
2021/01/20 00:54:03;;;;;;;3.57;2.40;;;3.50;96.80;;;;;;5111222;28;20771;-74
2021/01/20 00:56:32;;;;;;;3.90;2.60;;;3.50;96.70;;;;;;5107895;28;20419;-74
2021/01/20 00:58:58;;;;;;;3.30;2.05;;;3.50;96.80;;;;;;5112352;28;20473;-73
2021/01/20 01:01:25;;;;;;;3.03;2.30;;;3.40;96.80;;;;;;5097994;27;20534;-73
2021/01/20 01:03:54;;;;;;;3.55;2.13;;;3.50;96.70;;;;;;5091949;28;20398;-73
2021/01/20 01:06:21;;;;;;;3.47;2.10;;;3.50;96.70;;;;;;5089468;27;20473;-73
2021/01/20 01:08:47;;;;;;;4.75;2.70;;;3.40;96.70;;;;;;5090781;28;20427;-73
2021/01/20 01:11:13;;;;;;;5.05;2.38;;;3.40;96.80;;;;;;5089826;28;20426;-74
2021/01/20 01:13:40;;;;;;;3.58;2.50;;;3.40;96.80;;;;;;5112038;28;20470;-73
2021/01/20 01:16:06;;;;;;;2.58;2.38;;;3.40;96.80;;;;;;5111146;28;20425;-73
2021/01/20 01:18:35;;;;;;;5.13;2.60;;;3.40;96.70;;;;;;5087948;28;20406;-73
2021/01/20 01:21:04;;;;;;;5.85;2.90;;;3.40;96.70;;;;;;5091206;28;20421;-74
2021/01/20 01:23:34;;;;;;;3.88;2.70;;;3.40;96.80;;;;;;5103644;27;20526;-74
2021/01/20 01:26:01;;;;;;;4.50;3.45;;;3.30;96.70;;;;;;5111507;28;20463;-73
2021/01/20 01:28:29;;;;;;;6.10;3.90;;;3.40;96.70;;;;;;5093405;28;20931;-74
2021/01/20 01:30:56;;;;;;;7.05;4.20;;;3.40;96.70;;;;;;5090308;28;20804;-74
2021/01/20 01:33:26;;;;;;;6.95;4.70;;;3.40;96.80;;;;;;5089138;28;20410;-74
2021/01/20 01:35:53;;;;;;;7.57;5.30;;;3.40;96.60;;;;;;5091375;28;20401;-73
2021/01/20 01:38:19;;;;;;;6.78;5.47;;;3.40;96.70;;;;;;5095157;28;20465;-74
2021/01/20 01:40:46;;;;;;;6.88;5.65;;;3.50;96.70;;;;;;5110300;28;20436;-73
2021/01/20 01:43:16;;;;;;;7.28;5.90;;;3.50;96.60;;;;;;5104712;28;20463;-73
2021/01/20 01:45:43;;;;;;;8.75;6.75;;;3.50;96.60;;;;;;5090358;28;20705;-74
2021/01/20 01:48:09;;;;;;;8.97;6.20;;;3.50;96.70;;;;;;5086797;28;20410;-73
2021/01/20 01:50:38;;;;;;;9.65;6.57;;;3.50;96.60;;;;;;5090384;28;20467;-73
2021/01/20 01:53:12;;;;;;;9.85;7.65;;;3.50;96.60;;;;;;5089886;28;20731;-73
2021/01/20 01:55:41;;;;;;;11.23;7.28;;;3.40;96.80;;;;;;5087392;28;20418;-73
2021/01/20 01:58:08;;;;;;;8.88;7.30;;;3.40;96.70;;;;;;5089803;28;20397;-73
2021/01/20 02:00:35;;;;;;;10.83;8.07;;;3.30;97.00;;;;;;5101977;28;20744;-73
2021/01/20 02:03:02;;;;;;;11.93;7.28;;;3.30;96.80;;;;;;5110782;28;20894;-73
2021/01/20 02:05:29;;;;;;;9.70;7.80;;;3.30;96.50;;;;;;5094198;28;20463;-73
2021/01/20 02:07:57;;;;;;;10.10;7.40;;;3.20;96.50;;;;;;5090557;28;20402;-73
2021/01/20 02:10:23;;;;;;;10.70;8.30;;;3.00;96.50;;;;;;5087635;28;20463;-73
2021/01/20 02:12:50;;;;;;;9.93;8.07;;;2.90;96.60;;;;;;5090576;28;20704;-73
2021/01/20 02:15:55;;;;;;;13.00;9.32;;;2.90;96.60;;;;;;5093257;28;20408;-73
2021/01/20 02:18:32;;;;;;;11.20;8.75;;;2.80;96.80;;;;;;5051884;28;20736;-73
2021/01/20 02:21:43;;;;;;;11.98;9.90;;;2.70;96.90;;;;;;5101733;28;20485;-73
2021/01/20 02:24:14;;;;;;;12.02;9.98;;;2.70;97.10;;;;;;5090305;28;20410;-73
2021/01/20 02:27:04;;;;;;;15.85;10.90;;;2.70;97.10;;;;;;5099775;28;20459;-73
2021/01/20 02:30:10;;;;;;;11.63;9.48;;;2.70;97.10;;;;;;5110466;28;20461;-74
2021/01/20 02:32:38;;;;;;;13.35;10.45;;;2.70;97.00;;;;;;5105223;28;20412;-73
2021/01/20 02:35:07;;;;;;;16.92;12.05;;;2.70;97.10;;;;;;5110111;28;20414;-74
2021/01/20 02:37:37;;;;;;;14.70;12.27;;;2.60;97.20;;;;;;5090472;28;20414;-73
2021/01/20 02:40:05;;;;;;;14.90;11.38;;;2.60;97.30;;;;;;5089149;28;20842;-73
2021/01/20 02:42:41;;;;;;;13.80;10.77;;;2.50;97.20;;;;;;5086910;28;20455;-73
2021/01/20 02:45:09;;;;;;;14.13;11.23;;;2.50;97.30;;;;;;5090412;28;20429;-73
2021/01/20 02:47:35;;;;;;;13.60;10.30;;;2.40;97.10;;;;;;5096890;28;20428;-73
2021/01/20 02:50:03;;;;;;;12.75;10.30;;;2.40;97.10;;;;;;5110500;28;20783;-73
2021/01/20 02:52:39;;;;;;;14.32;10.98;;;2.40;96.90;;;;;;5105365;28;20808;-73
2021/01/20 02:55:09;;;;;;;17.45;12.32;;;2.40;96.90;;;;;;5109254;28;20465;-73
2021/01/20 02:57:37;;;;;;;13.90;12.00;;;2.50;97.10;;;;;;5102030;28;21268;-74
2021/01/20 03:00:05;;;;;;;16.10;12.30;;;2.40;97.10;;;;;;5089291;28;20494;-73
2021/01/20 03:02:35;;;;;;;19.83;15.45;;;2.40;97.10;;;;;;5088491;28;20426;-74
2021/01/20 03:05:06;;;;;;;24.50;17.88;;;2.40;97.00;;;;;;5090030;28;20402;-73
2021/01/20 03:07:36;;;;;;;23.60;17.33;;;2.40;97.10;;;;;;5087971;28;20398;-73
2021/01/20 03:10:09;;;;;;;22.77;17.10;;;2.40;97.20;;;;;;5089834;28;20849;-73
2021/01/20 03:12:36;;;;;;;23.38;17.23;;;2.40;97.20;;;;;;5093392;28;20410;-73
2021/01/20 03:15:12;;;;;;;21.67;16.48;;;2.30;97.10;;;;;;5109601;28;20465;-73
2021/01/20 03:17:39;;;;;;;21.52;17.02;;;2.30;97.10;;;;;;5114169;28;20895;-74
2021/01/20 03:20:06;;;;;;;22.23;15.63;;;2.20;97.00;;;;;;5092742;28;20414;-73
2021/01/20 03:22:32;;;;;;;20.05;16.17;;;2.30;97.20;;;;;;5100825;28;20432;-73
2021/01/20 03:24:59;;;;;;;19.58;16.33;;;2.20;97.20;;;;;;5109872;28;20461;-73
2021/01/20 03:27:25;;;;;;;22.50;16.23;;;2.20;97.20;;;;;;5113183;28;20933;-73
2021/01/20 03:29:51;;;;;;;24.13;18.07;;;2.30;97.20;;;;;;5109295;28;20420;-73
2021/01/20 03:32:20;;;;;;;25.63;16.70;;;2.20;97.20;;;;;;5113911;28;20480;-73
2021/01/20 03:34:47;;;;;;;50.22;19.60;;;2.20;97.30;;;;;;5104972;28;20806;-73
2021/01/20 03:37:13;;;;;;;34.57;20.70;;;2.20;97.30;;;;;;5093374;28;20412;-73
2021/01/20 03:39:39;;;;;;;245.02;29.17;;;2.20;97.60;;;;;;5089949;28;20520;-73
2021/01/20 03:42:06;;;;;;;89.57;31.10;;;2.20;97.80;;;;;;5093010;28;20894;-74
2021/01/20 03:44:35;;;;;;;82.47;26.33;;;2.30;98.00;;;;;;5092910;28;20486;-74
2021/01/20 03:47:01;;;;;;;77.32;27.70;;;2.20;98.10;;;;;;5091221;28;20414;-74
2021/01/20 03:49:28;;;;;;;100.65;29.77;;;2.20;98.10;;;;;;5092199;28;20483;-74
2021/01/20 03:51:54;;;;;;;73.30;31.90;;;2.20;98.20;;;;;;5089383;28;20471;-73
2021/01/20 03:54:20;;;;;;;139.45;34.70;;;2.10;98.30;;;;;;5091932;28;20410;-74
2021/01/20 03:56:47;;;;;;;83.55;32.30;;;2.10;98.40;;;;;;5115146;27;20463;-73
2021/01/20 03:59:13;;;;;;;104.82;34.17;;;2.10;98.40;;;;;;5134122;27;20909;-73
2021/01/20 04:01:40;;;;;;;101.43;34.95;;;2.20;98.50;;;;;;5118701;27;20427;-73
2021/01/20 04:04:06;;;;;;;175.90;33.28;;;2.10;98.60;;;;;;5113206;27;20481;-74
2021/01/20 04:06:32;;;;;;;207.57;31.43;;;2.10;98.60;;;;;;5102809;27;20402;-74
2021/01/20 04:08:59;;;;;;;262.27;37.85;;;2.20;98.50;;;;;;5091846;28;20401;-74
2021/01/20 04:11:26;;;;;;;130.52;37.20;;;2.10;98.50;;;;;;5092637;28;21007;-73
2021/01/20 04:13:52;;;;;;;154.25;35.75;;;2.10;98.70;;;;;;5112025;28;20401;-74
2021/01/20 04:16:19;;;;;;;88.35;37.22;;;2.10;98.80;;;;;;5112032;28;20451;-74
2021/01/20 04:18:45;;;;;;;176.00;35.78;;;2.10;98.90;;;;;;5109152;27;20414;-73
2021/01/20 04:21:12;;;;;;;106.55;34.90;;;2.10;99.00;;;;;;5112794;28;20485;-73
2021/01/20 04:23:38;;;;;;;210.35;35.15;;;2.10;98.90;;;;;;5108224;28;20400;-73
2021/01/20 04:26:08;;;;;;;242.33;33.83;;;2.00;98.90;;;;;;5111446;28;20408;-73
2021/01/20 04:28:35;;;;;;;234.85;34.92;;;2.00;98.90;;;;;;5095634;28;20716;-73
2021/01/20 04:31:05;;;;;;;119.60;34.47;;;1.90;98.90;;;;;;5091101;28;20487;-73
2021/01/20 04:33:32;;;;;;;418.42;40.22;;;1.90;98.90;;;;;;5098148;28;20466;-73
2021/01/20 04:35:58;;;;;;;150.82;36.90;;;1.90;99.10;;;;;;5111635;28;20392;-73
2021/01/20 04:38:27;;;;;;;272.63;33.67;;;1.90;99.10;;;;;;5108723;28;20465;-74
2021/01/20 04:40:57;;;;;;;278.63;33.75;;;1.90;99.10;;;;;;5111381;28;20469;-73
2021/01/20 04:43:24;;;;;;;170.52;35.28;;;1.90;99.00;;;;;;5107760;28;20404;-73
2021/01/20 04:45:52;;;;;;;210.75;35.70;;;1.80;99.00;;;;;;5111235;28;20392;-73
2021/01/20 04:48:19;;;;;;;347.83;40.47;;;1.80;99.10;;;;;;5108415;28;20408;-73
2021/01/20 04:50:50;;;;;;;311.58;37.58;;;1.70;99.10;;;;;;5112436;28;20400;-73
2021/01/20 04:53:19;;;;;;;275.85;35.78;;;1.80;99.30;;;;;;5111140;28;20416;-73
2021/01/20 04:55:46;;;;;;;220.52;33.33;;;1.80;99.40;;;;;;5089443;27;20449;-74
2021/01/20 04:58:13;;;;;;;215.77;34.03;;;1.70;99.30;;;;;;5091882;28;20398;-73
2021/01/20 05:00:41;;;;;;;93.07;33.83;;;1.70;99.30;;;;;;5104567;28;20446;-74
2021/01/20 05:03:09;;;;;;;317.05;35.80;;;1.70;99.30;;;;;;5111217;28;20404;-73
2021/01/20 05:05:38;;;;;;;197.15;35.67;;;1.90;99.60;;;;;;5108419;28;20420;-74
2021/01/20 05:08:05;;;;;;;172.02;36.42;;;1.80;99.00;;;;;;5111209;28;20404;-73
2021/01/20 05:10:32;;;;;;;109.60;35.42;;;1.70;99.10;;;;;;5108052;28;20462;-73
2021/01/20 05:12:59;;;;;;;249.80;33.93;;;1.70;99.30;;;;;;5111915;28;20401;-73
2021/01/20 05:15:31;;;;;;;166.32;38.35;;;1.70;99.40;;;;;;5113373;27;20467;-73
2021/01/20 05:18:03;;;;;;;175.80;40.67;;;1.60;99.30;;;;;;5132074;27;20456;-73
2021/01/20 05:20:37;;;;;;;191.63;45.03;;;1.60;99.50;;;;;;5124073;27;20424;-73
2021/01/20 05:23:11;;;;;;;202.13;41.45;;;1.50;99.60;;;;;;5111533;28;20744;-73
2021/01/20 05:25:48;;;;;;;191.85;35.17;;;1.60;99.70;;;;;;5109805;27;20837;-73
2021/01/20 05:28:35;;;;;;;105.20;35.28;;;1.60;99.80;;;;;;5132152;27;20431;-73
2021/01/20 05:31:03;;;;;;;110.30;31.97;;;1.50;99.80;;;;;;5121380;27;20406;-73
2021/01/20 05:33:42;;;;;;;136.93;31.27;;;1.50;99.90;;;;;;5090875;28;20429;-73
2021/01/20 05:36:12;;;;;;;108.53;31.27;;;1.50;99.90;;;;;;5089094;28;20404;-73
2021/01/20 05:38:54;;;;;;;99.10;29.17;;;1.40;99.80;;;;;;5110165;28;20909;-73
2021/01/20 05:41:32;;;;;;;146.32;31.38;;;1.40;99.90;;;;;;5106816;28;20477;-74
2021/01/20 05:44:11;;;;;;;90.93;28.23;;;1.50;99.90;;;;;;5089961;28;20394;-73
2021/01/20 05:46:40;;;;;;;180.45;31.95;;;1.60;99.80;;;;;;5088157;27;20787;-73
2021/01/20 05:49:07;;;;;;;195.02;32.40;;;1.70;99.50;;;;;;5110422;27;20432;-73
2021/01/20 05:51:43;;;;;;;156.90;31.08;;;1.60;99.20;;;;;;5109957;28;20442;-73
2021/01/20 05:54:12;;;;;;;138.40;28.40;;;1.60;98.90;;;;;;5087464;28;20792;-74
2021/01/20 05:56:39;;;;;;;91.72;25.50;;;1.50;99.00;;;;;;5090349;28;20425;-73
2021/01/20 05:59:09;;;;;;;203.93;30.30;;;1.50;98.70;;;;;;5104488;28;20492;-73
2021/01/20 06:01:39;;;;;;;91.22;28.23;;;1.50;98.90;;;;;;5110716;28;20463;-73
2021/01/20 06:04:06;;;;;;;154.23;31.40;;;1.40;98.70;;;;;;5106482;28;20856;-73
2021/01/20 06:06:33;;;;;;;175.18;31.58;;;1.30;99.00;;;;;;5090996;28;20409;-74
2021/01/20 06:09:05;;;;;;;191.77;32.47;;;1.20;99.20;;;;;;5087774;28;20483;-73
2021/01/20 06:11:31;;;;;;;179.10;25.13;;;1.20;99.50;;;;;;5089963;28;20410;-73
2021/01/20 06:14:00;;;;;;;160.90;25.70;;;1.40;99.30;;;;;;5087669;28;20413;-73
2021/01/20 06:16:29;;;;;;;215.68;29.67;;;1.20;98.80;;;;;;5089839;28;20860;-73
2021/01/20 06:19:03;;;;;;;101.95;30.48;;;1.20;99.20;;;;;;5087731;28;20413;-73
2021/01/20 06:21:35;;;;;;;78.00;28.05;;;1.20;99.20;;;;;;5089259;28;21009;-73
2021/01/20 06:24:06;;;;;;;174.95;32.20;;;1.10;99.40;;;;;;5104843;28;20404;-71
2021/01/20 06:26:36;;;;;;;178.05;30.65;;;1.20;99.60;;;;;;5101277;28;20459;-72
2021/01/20 06:29:05;;;;;;;157.93;33.65;;;1.10;99.50;;;;;;5087772;28;20414;-72
2021/01/20 06:31:40;;;;;;;148.38;38.47;;;1.10;99.70;;;;;;5089446;28;20456;-73
2021/01/20 06:34:09;;;;;;;206.60;41.20;;;1.10;99.80;;;;;;5090410;28;20984;-72
2021/01/20 06:36:37;;;;;;;156.60;39.28;;;1.20;99.90;;;;;;5087843;28;20463;-72
2021/01/20 06:39:39;;;;;;;193.40;35.95;;;1.10;99.90;;;;;;5089395;28;20406;-72
2021/01/20 06:42:29;;;;;;;167.05;30.45;;;1.30;99.90;;;;;;5031680;28;20512;-72
2021/01/20 06:45:22;;;;;;;194.05;34.15;;;1.40;99.80;;;;;;5084642;28;20405;-72
2021/01/20 06:48:00;;;;;;;88.28;31.05;;;1.20;99.50;;;;;;5092980;28;20435;-72
2021/01/20 06:50:34;;;;;;;160.10;32.92;;;1.20;99.70;;;;;;5090631;28;20912;-72
2021/01/20 06:53:08;;;;;;;117.35;31.13;;;1.10;99.90;;;;;;5094255;28;20495;-71
2021/01/20 06:55:39;;;;;;;88.85;28.17;;;1.20;99.90;;;;;;5089683;28;20418;-71
2021/01/20 06:58:30;;;;;;;72.10;26.53;;;1.20;99.90;;;;;;5093175;28;20436;-71
2021/01/20 07:00:59;;;;;;;185.38;26.13;;;1.20;99.90;;;;;;5089563;28;20862;-71
2021/01/20 07:03:39;;;;;;;109.90;25.50;;;1.40;99.90;;;;;;5094084;28;20431;-71
2021/01/20 07:06:40;;;;;;;90.78;25.80;;;1.40;99.90;;;;;;5090639;28;20417;-70
2021/01/20 07:09:14;;;;;;;65.05;23.48;;;1.40;99.90;;;;;;5100476;28;20485;-68
2021/01/20 07:11:55;;;;;;;58.50;20.70;;;1.40;99.90;;;;;;5106381;28;20875;-68
2021/01/20 07:14:31;;;;;;;77.53;19.88;;;1.60;99.90;;;;;;5092852;28;20413;-68
2021/01/20 07:16:59;;;;;;;129.23;18.45;;;1.60;99.90;;;;;;5089397;28;20410;-68
2021/01/20 07:19:27;;;;;;;49.40;14.88;;;1.70;99.90;;;;;;5093609;28;20440;-68
2021/01/20 07:21:54;;;;;;;29.10;13.82;;;1.70;99.80;;;;;;5092810;28;20471;-69
2021/01/20 07:24:21;;;;;;;26.95;13.30;;;1.60;99.60;;;;;;5092026;28;20410;-68
2021/01/20 07:26:48;;;;;;;20.90;12.30;;;1.70;99.60;;;;;;5092877;28;20482;-69
2021/01/20 07:29:16;;;;;;;15.10;10.30;;;1.70;99.40;;;;;;5089425;28;20407;-69
2021/01/20 07:31:51;;;;;;;14.48;10.30;;;1.80;99.40;;;;;;5092324;28;20782;-69
2021/01/20 07:34:18;;;;;;;13.15;9.15;;;1.80;99.10;;;;;;5090269;27;20430;-69
2021/01/20 07:36:45;;;;;;;15.57;10.02;;;1.80;99.10;;;;;;5093209;28;20501;-69
2021/01/20 07:39:22;;;;;;;16.10;10.38;;;1.80;98.80;;;;;;5097366;28;20443;-69
2021/01/20 07:41:57;;;;;;;13.63;9.32;;;1.80;98.90;;;;;;5092588;28;20448;-69
2021/01/20 07:44:28;;;;;;;11.97;7.73;;;1.90;98.50;;;;;;5088722;28;20414;-69
2021/01/20 07:47:02;;;;;;;10.60;7.55;;;2.10;97.80;;;;;;5092230;28;20773;-69
2021/01/20 07:49:29;;;;;;;12.95;7.35;;;2.00;97.70;;;;;;5088841;28;20486;-69
2021/01/20 07:52:03;;;;;;;10.55;6.93;;;2.00;97.70;;;;;;5113591;28;20411;-69
2021/01/20 07:54:35;;;;;;;8.32;6.47;;;2.10;97.70;;;;;;5101806;28;20410;-70
2021/01/20 07:57:03;;;;;;;10.40;6.30;;;2.10;97.40;;;;;;5091653;28;20483;-69
2021/01/20 07:59:32;;;;;;;14.00;6.10;;;2.10;97.70;;;;;;5088772;28;20437;-69
2021/01/20 08:02:28;;;;;;;12.07;5.95;;;2.10;97.50;;;;;;5093010;28;20879;-69
2021/01/20 08:05:02;;;;;;;10.40;6.53;;;2.10;97.50;;;;;;5088885;28;20409;-69
2021/01/20 08:07:29;;;;;;;9.55;5.55;;;2.10;97.80;;;;;;5092188;28;20420;-69
2021/01/20 08:09:55;;;;;;;14.00;6.25;;;2.20;97.70;;;;;;5089010;28;20823;-69
2021/01/20 08:12:30;;;;;;;9.68;5.40;;;2.20;97.80;;;;;;5092600;28;20877;-69
2021/01/20 08:14:57;;;;;;;47.60;18.03;;;2.30;97.70;;;;;;5089499;28;20490;-69
2021/01/20 08:17:24;;;;;;;56.83;19.30;;;2.40;97.00;;;;;;5092592;28;20741;-69
2021/01/20 08:19:55;;;;;;;36.20;19.85;;;2.40;96.80;;;;;;5092718;28;20712;-69
2021/01/20 08:22:23;;;;;;;33.78;19.50;;;2.40;96.40;;;;;;5108338;27;20903;-69
2021/01/20 08:24:51;;;;;;;37.83;21.13;;;2.40;96.40;;;;;;5111783;28;20420;-69
2021/01/20 08:27:29;;;;;;;39.70;20.45;;;2.40;96.60;;;;;;5125033;27;21007;-69
2021/01/20 08:29:59;;;;;;;30.47;19.80;;;2.40;96.60;;;;;;5116074;27;21048;-69
2021/01/20 08:32:26;;;;;;;32.88;19.98;;;2.40;96.60;;;;;;5099852;27;20410;-69
2021/01/20 08:34:54;;;;;;;32.05;18.88;;;2.40;96.50;;;;;;5092344;28;20398;-71
2021/01/20 08:37:39;;;;;;;32.47;20.27;;;2.40;96.00;;;;;;5099724;27;20785;-71
2021/01/20 08:40:07;;;;;;;35.25;19.73;;;2.40;96.30;;;;;;5111669;28;20988;-71
2021/01/20 08:42:37;;;;;;;27.15;18.15;;;2.40;96.30;;;;;;5097731;28;20456;-71
2021/01/20 08:45:19;;;;;;;34.33;20.40;;;2.40;96.20;;;;;;5092032;28;20394;-71
2021/01/20 08:47:53;;;;;;;25.75;19.05;;;2.50;96.80;;;;;;5088944;28;20499;-71
2021/01/20 08:50:43;;;;;;;33.38;21.08;;;2.50;96.40;;;;;;5091860;28;20501;-71
2021/01/20 08:53:13;;;;;;;29.42;19.38;;;2.60;96.20;;;;;;5080306;28;20413;-71
2021/01/20 08:55:48;;;;;;;31.42;17.08;;;2.70;96.00;;;;;;5090821;28;20414;-71
2021/01/20 08:58:35;;;;;;;43.42;15.45;;;2.80;95.80;;;;;;5088698;28;20841;-71
2021/01/20 09:01:04;;;;;;;41.67;15.25;;;3.00;95.20;;;;;;5090722;28;20424;-71
2021/01/20 09:03:32;;;;;;;33.50;16.35;;;3.00;94.60;;;;;;5103770;27;20879;-71
2021/01/20 09:06:01;;;;;;;30.10;15.53;;;3.00;94.40;;;;;;5132961;27;20390;-71
2021/01/20 09:08:29;;;;;;;23.73;14.77;;;3.00;94.70;;;;;;5122548;27;20897;-71
2021/01/20 09:10:58;;;;;;;21.95;14.50;;;3.10;94.40;;;;;;5111179;28;20404;-71
2021/01/20 09:13:25;;;;;;;21.42;14.80;;;3.20;94.40;;;;;;5105058;28;20763;-71
2021/01/20 09:15:54;;;;;;;30.03;18.23;;;3.30;94.30;;;;;;5091816;28;20414;-71
2021/01/20 09:18:23;;;;;;;42.47;17.95;;;3.40;94.10;;;;;;5090511;28;20471;-71
2021/01/20 09:20:50;;;;;;;40.22;17.92;;;3.40;94.30;;;;;;5090882;28;20417;-72
2021/01/20 09:23:17;;;;;;;27.20;17.23;;;3.40;94.30;;;;;;5103746;28;20423;-71
2021/01/20 09:25:47;;;;;;;38.08;17.73;;;3.50;94.30;;;;;;5089809;28;20416;-71
2021/01/20 09:28:14;;;;;;;44.92;18.33;;;3.50;94.20;;;;;;5090321;28;20436;-71
2021/01/20 09:30:42;;;;;;;35.30;18.58;;;3.50;94.10;;;;;;5088672;28;20398;-71
2021/01/20 09:33:10;;;;;;;61.50;18.65;;;3.40;93.90;;;;;;5091254;28;20428;-71
2021/01/20 09:35:39;;;;;;;36.28;17.73;;;3.50;93.90;;;;;;5087833;28;20406;-71
2021/01/20 09:38:06;;;;;;;44.97;18.02;;;3.50;94.00;;;;;;5090077;28;20744;-71
2021/01/20 09:40:36;;;;;;;27.73;17.25;;;3.60;94.10;;;;;;5094826;28;20439;-71
2021/01/20 09:43:03;;;;;;;34.55;15.13;;;3.70;93.70;;;;;;5110978;27;20424;-71
2021/01/20 09:45:30;;;;;;;26.00;13.82;;;3.90;92.90;;;;;;5103857;28;20475;-71
2021/01/20 09:48:07;;;;;;;25.73;14.20;;;4.00;92.50;;;;;;5090106;28;20483;-72
2021/01/20 09:50:34;;;;;;;23.10;13.75;;;4.00;92.30;;;;;;5090577;28;20836;-71
2021/01/20 09:53:05;;;;;;;21.30;14.20;;;4.00;92.50;;;;;;5110233;28;21176;-71
2021/01/20 09:55:32;;;;;;;24.13;14.10;;;4.10;92.10;;;;;;5106808;28;20408;-72
2021/01/20 09:58:03;;;;;;;30.63;14.82;;;4.10;91.50;;;;;;5090649;28;20398;-72
2021/01/20 10:00:31;;;;;;;22.63;14.88;;;4.10;91.30;;;;;;5089712;28;20931;-72
2021/01/20 10:03:00;;;;;;;25.38;14.77;;;4.00;91.90;;;;;;5104703;28;20492;-72
2021/01/20 10:05:29;;;;;;;30.38;15.57;;;4.00;91.80;;;;;;5110483;28;20396;-72
2021/01/20 10:07:58;;;;;;;26.17;14.75;;;4.00;91.30;;;;;;5090707;28;20398;-72
2021/01/20 10:10:24;;;;;;;34.33;13.43;;;4.00;91.70;;;;;;5089494;28;20398;-72
2021/01/20 10:12:54;;;;;;;23.73;14.03;;;4.10;91.20;;;;;;5086576;28;20414;-71
2021/01/20 10:15:21;;;;;;;19.42;14.15;;;4.10;91.40;;;;;;5090557;28;20406;-71
2021/01/20 10:17:49;;;;;;;22.75;14.43;;;4.10;91.60;;;;;;5095687;28;20465;-72
2021/01/20 10:20:16;;;;;;;21.40;14.13;;;4.20;91.20;;;;;;5109930;28;20792;-72
2021/01/20 10:22:42;;;;;;;19.33;13.63;;;4.30;91.60;;;;;;5106305;28;20456;-71
2021/01/20 10:25:09;;;;;;;22.15;13.85;;;4.40;91.20;;;;;;5110449;28;20404;-72
2021/01/20 10:27:35;;;;;;;22.07;14.40;;;4.60;91.10;;;;;;5101797;28;20492;-72
2021/01/20 10:30:03;;;;;;;21.70;14.88;;;4.90;90.30;;;;;;5089318;28;20834;-72
2021/01/20 10:32:29;;;;;;;22.40;14.48;;;5.00;89.90;;;;;;5090480;28;20410;-72
2021/01/20 10:34:56;;;;;;;25.30;14.50;;;5.50;89.50;;;;;;5086778;28;20410;-72
2021/01/20 10:37:22;;;;;;;19.57;12.40;;;6.00;86.60;;;;;;5090189;28;20491;-72
2021/01/20 10:39:48;;;;;;;18.42;12.60;;;6.70;83.50;;;;;;5086828;28;20916;-72
2021/01/20 10:42:15;;;;;;;21.10;13.38;;;7.40;81.10;;;;;;5089731;28;20854;-72
2021/01/20 10:44:41;;;;;;;16.20;10.88;;;8.10;79.80;;;;;;5097974;28;20407;-72
2021/01/20 10:47:07;;;;;;;20.20;11.63;;;8.80;76.10;;;;;;5110490;28;20408;-72
2021/01/20 10:49:36;;;;;;;18.48;11.23;;;9.50;72.50;;;;;;5097460;28;20428;-72
2021/01/20 10:52:03;;;;;;;16.80;10.77;;;10.50;70.50;;;;;;5089862;28;20841;-72
2021/01/20 10:54:29;;;;;;;16.10;10.05;;;11.30;68.60;;;;;;5092429;28;20773;-73
2021/01/20 10:56:58;;;;;;;14.32;9.68;;;11.80;63.60;;;;;;5110444;28;20511;-72
2021/01/20 10:59:24;;;;;;;13.88;9.30;;;12.40;64.10;;;;;;5104815;28;20417;-72
2021/01/20 11:01:53;;;;;;;13.60;9.70;;;12.60;62.20;;;;;;5088913;28;20422;-73
2021/01/20 11:04:19;;;;;;;13.43;8.85;;;12.40;61.60;;;;;;5088684;28;20456;-71
2021/01/20 11:06:48;;;;;;;12.55;8.70;;;12.50;62.00;;;;;;5107720;28;20412;-72
2021/01/20 11:09:15;;;;;;;11.77;8.48;;;12.80;61.80;;;;;;5110034;28;20771;-72
2021/01/20 11:11:41;;;;;;;12.38;8.75;;;12.90;60.00;;;;;;5106398;28;20453;-73
2021/01/20 11:14:07;;;;;;;13.23;9.13;;;12.90;58.60;;;;;;5109912;28;20426;-73
2021/01/20 11:16:35;;;;;;;14.80;9.52;;;12.90;61.10;;;;;;5093715;28;20410;-73
2021/01/20 11:19:03;;;;;;;12.10;9.20;;;13.10;60.50;;;;;;5089522;28;20405;-73
2021/01/20 11:21:30;;;;;;;13.20;9.18;;;13.30;59.70;;;;;;5105716;28;20847;-72
2021/01/20 11:23:56;;;;;;;13.90;8.93;;;13.40;60.10;;;;;;5111454;27;20411;-73
2021/01/20 11:26:22;;;;;;;11.63;8.50;;;13.60;60.20;;;;;;5106721;28;20479;-73
2021/01/20 11:28:52;;;;;;;10.10;7.23;;;13.90;58.80;;;;;;5109063;28;20453;-73
2021/01/20 11:31:18;;;;;;;11.65;7.80;;;14.20;58.70;;;;;;5105998;28;20420;-73
2021/01/20 11:33:45;;;;;;;13.38;7.15;;;14.60;58.20;;;;;;5112086;28;20404;-73
2021/01/20 11:36:11;;;;;;;13.90;7.20;;;14.60;57.50;;;;;;5111354;28;20406;-73
2021/01/20 11:38:38;;;;;;;7.53;5.73;;;14.30;57.20;;;;;;5112835;28;20477;-73
2021/01/20 11:41:04;;;;;;;9.93;6.15;;;13.60;56.90;;;;;;5113606;28;20400;-71
2021/01/20 11:43:30;;;;;;;13.10;8.88;;;12.50;60.10;;;;;;5125544;27;20458;-72
2021/01/20 11:45:57;;;;;;;21.55;10.30;;;11.40;64.40;;;;;;5133827;27;20395;-72
2021/01/20 11:48:23;;;;;;;16.30;10.40;;;10.50;67.40;;;;;;5103052;27;20406;-72
2021/01/20 11:50:52;;;;;;;13.98;10.43;;;9.60;72.10;;;;;;5091704;28;20955;-72
2021/01/20 11:53:22;;;;;;;15.20;10.07;;;9.10;74.60;;;;;;5100476;28;20447;-72
2021/01/20 11:55:51;;;;;;;16.35;10.45;;;8.90;75.70;;;;;;5095111;28;20538;-72
2021/01/20 11:58:20;;;;;;;17.05;10.95;;;8.80;77.60;;;;;;5109708;28;20408;-72
2021/01/20 12:00:46;;;;;;;19.73;12.23;;;8.70;77.90;;;;;;5112725;28;20412;-72
2021/01/20 12:03:13;;;;;;;18.13;11.95;;;8.70;78.30;;;;;;5104920;28;20438;-72
2021/01/20 12:05:40;;;;;;;16.27;10.68;;;8.60;78.30;;;;;;5113393;28;20408;-72
2021/01/20 12:08:06;;;;;;;14.63;9.50;;;8.50;78.50;;;;;;5108281;28;20876;-72
2021/01/20 12:10:37;;;;;;;15.50;9.80;;;8.40;78.40;;;;;;5091611;28;20503;-72
2021/01/20 12:13:03;;;;;;;12.65;9.95;;;8.30;78.70;;;;;;5092644;28;20398;-72
2021/01/20 12:15:30;;;;;;;12.57;9.15;;;8.20;79.30;;;;;;5090071;28;20495;-72
2021/01/20 12:17:59;;;;;;;13.80;9.00;;;8.10;79.80;;;;;;5092132;28;20780;-72
2021/01/20 12:20:27;;;;;;;12.10;8.73;;;8.10;80.30;;;;;;5104225;28;20424;-72
2021/01/20 12:22:56;;;;;;;31.58;16.10;;;8.00;80.50;;;;;;5112647;28;20428;-72
2021/01/20 12:25:22;;;;;;;110.18;38.92;;;8.00;80.60;;;;;;5097061;28;20402;-72
2021/01/20 12:27:49;;;;;;;35.92;17.33;;;8.00;80.20;;;;;;5091079;28;20442;-72
2021/01/20 12:30:17;;;;;;;17.57;11.67;;;7.90;80.10;;;;;;5106361;27;20712;-72
2021/01/20 12:32:44;;;;;;;14.60;10.60;;;7.90;80.30;;;;;;5133431;27;20410;-72
2021/01/20 12:35:11;;;;;;;14.93;11.02;;;7.80;80.00;;;;;;5122272;27;20838;-72
2021/01/20 12:37:58;;;;;;;15.88;11.20;;;7.70;79.80;;;;;;5105829;28;20417;-72
2021/01/20 12:40:25;;;;;;;13.80;10.73;;;7.60;80.10;;;;;;5088084;28;20417;-72
2021/01/20 12:42:54;;;;;;;15.57;10.90;;;7.40;81.00;;;;;;5090509;28;20421;-72
2021/01/20 12:45:23;;;;;;;12.52;10.35;;;7.40;81.00;;;;;;5087457;27;20433;-72
2021/01/20 12:47:50;;;;;;;14.75;10.60;;;7.30;80.70;;;;;;5090995;28;20445;-72
2021/01/20 12:50:19;;;;;;;14.02;10.40;;;7.20;80.90;;;;;;5091045;28;20401;-72
2021/01/20 12:52:45;;;;;;;12.73;10.32;;;7.10;81.20;;;;;;5089525;28;20430;-72